Time;durP1;ratioP1;P1;durP2;ratioP2;P2;SDS_P1;SDS_P2;PMS_P1;PMS_P2;Temp;Humidity;BMP_temperature;BMP_pressure;BME280_temperature;BME280_humidity;BME280_pressure;Samples;Min_cycle;Max_cycle;Signal;HPM_P1;HPM_P2
2022/06/16 00:00:37;;;;;;;0.57;0.57;;;18.70;99.90;;;;;;5115184;28;20173;-59
2022/06/16 00:03:05;;;;;;;1.17;1.02;;;18.70;99.90;;;;;;5113952;28;20181;-58
2022/06/16 00:05:34;;;;;;;1.15;1.00;;;18.70;99.90;;;;;;5114881;28;20177;-58
2022/06/16 00:08:01;;;;;;;0.95;0.77;;;18.70;99.90;;;;;;5114817;28;20212;-59
2022/06/16 00:10:27;;;;;;;0.70;0.70;;;18.70;99.90;;;;;;5113423;28;20181;-58
2022/06/16 00:12:53;;;;;;;1.05;0.80;;;18.70;99.90;;;;;;5113821;28;20256;-58
2022/06/16 00:15:22;;;;;;;0.88;0.88;;;18.70;99.90;;;;;;5113381;28;20228;-58
2022/06/16 00:17:47;;;;;;;1.33;0.88;;;18.70;99.90;;;;;;5114913;28;20630;-59
2022/06/16 00:20:14;;;;;;;0.80;0.77;;;18.60;99.90;;;;;;5114791;28;20184;-59
2022/06/16 00:22:39;;;;;;;0.98;0.82;;;18.50;99.90;;;;;;5114729;28;20235;-58
2022/06/16 00:25:07;;;;;;;0.63;0.63;;;18.50;99.90;;;;;;5114447;28;20169;-58
2022/06/16 00:27:33;;;;;;;0.98;0.80;;;18.50;99.90;;;;;;5114500;28;20177;-59
2022/06/16 00:29:59;;;;;;;1.83;1.02;;;18.50;99.90;;;;;;5114583;28;20226;-59
2022/06/16 00:32:25;;;;;;;0.80;0.73;;;18.40;99.90;;;;;;5114504;28;20252;-59
2022/06/16 00:34:51;;;;;;;1.30;1.10;;;18.40;99.90;;;;;;5114457;28;20173;-59
2022/06/16 00:37:17;;;;;;;0.88;0.88;;;18.40;99.90;;;;;;5114349;28;20181;-58
2022/06/16 00:39:42;;;;;;;0.80;0.80;;;18.30;99.90;;;;;;5114216;28;20238;-58
2022/06/16 00:42:16;;;;;;;0.88;0.65;;;18.30;99.90;;;;;;5113284;28;20170;-59
2022/06/16 00:44:44;;;;;;;0.80;0.80;;;18.20;99.90;;;;;;5114475;28;20173;-58
2022/06/16 00:47:10;;;;;;;0.80;0.75;;;18.20;99.90;;;;;;5114202;28;20169;-59
2022/06/16 00:49:41;;;;;;;1.13;0.95;;;18.20;99.90;;;;;;5114283;28;20299;-58
2022/06/16 00:52:20;;;;;;;1.00;0.90;;;18.10;99.90;;;;;;5114089;28;20158;-58
2022/06/16 00:54:55;;;;;;;0.73;0.73;;;18.10;99.90;;;;;;5114273;28;20169;-59
2022/06/16 00:57:31;;;;;;;1.83;1.05;;;18.10;99.90;;;;;;5114127;28;20210;-59
2022/06/16 00:59:58;;;;;;;1.75;1.30;;;18.10;99.90;;;;;;5113469;28;20630;-59
2022/06/16 01:02:29;;;;;;;1.25;1.10;;;18.10;99.90;;;;;;5114054;28;20294;-58
2022/06/16 01:04:55;;;;;;;1.40;1.23;;;18.10;99.90;;;;;;5114141;28;20514;-58
2022/06/16 01:07:25;;;;;;;0.98;0.80;;;18.00;99.90;;;;;;5113618;28;20193;-59
2022/06/16 01:09:54;;;;;;;0.68;0.68;;;18.00;99.90;;;;;;5114037;28;20192;-58
2022/06/16 01:15:37;;;;;;;0.93;0.93;;;17.90;99.90;;;;;;5114062;28;20683;-58
2022/06/16 01:18:28;;;;;;;1.05;0.90;;;17.80;99.90;;;;;;5113894;28;20180;-58
2022/06/16 01:21:05;;;;;;;1.10;1.00;;;17.70;99.90;;;;;;5113853;28;20180;-58
2022/06/16 01:24:08;;;;;;;0.73;0.70;;;17.80;99.90;;;;;;5113742;28;20164;-58
2022/06/16 01:26:48;;;;;;;0.85;0.85;;;17.70;99.90;;;;;;5113742;28;20203;-59
2022/06/16 01:29:41;;;;;;;1.30;1.20;;;17.80;99.90;;;;;;5113530;28;20197;-58
2022/06/16 01:32:25;;;;;;;0.90;0.80;;;17.70;99.90;;;;;;5113900;28;20710;-58
2022/06/16 01:35:23;;;;;;;0.73;0.73;;;17.60;99.90;;;;;;5113647;28;20165;-58
2022/06/16 01:37:58;;;;;;;0.90;0.90;;;17.60;99.90;;;;;;5092306;28;20200;-58
2022/06/16 01:40:45;;;;;;;0.77;0.77;;;17.70;99.90;;;;;;5113445;28;20634;-58
2022/06/16 01:43:23;;;;;;;0.73;0.73;;;17.60;99.90;;;;;;5113904;28;20244;-58
2022/06/16 01:45:56;;;;;;;0.93;0.93;;;17.60;99.90;;;;;;5113603;28;20169;-58
2022/06/16 01:48:23;;;;;;;1.10;1.00;;;17.40;99.90;;;;;;5113247;28;20201;-58
2022/06/16 01:51:13;;;;;;;1.30;0.90;;;17.30;99.90;;;;;;5113479;28;20177;-58
2022/06/16 01:54:19;;;;;;;0.82;0.75;;;17.40;99.90;;;;;;5113484;28;20534;-58
2022/06/16 01:57:12;;;;;;;1.15;0.90;;;17.40;99.90;;;;;;5113283;28;20184;-59
2022/06/16 01:59:52;;;;;;;0.82;0.82;;;17.40;99.90;;;;;;5113377;28;20176;-58
2022/06/16 02:02:20;;;;;;;0.95;0.95;;;17.40;99.90;;;;;;5112448;28;20180;-58
2022/06/16 02:04:54;;;;;;;0.82;0.82;;;17.30;99.90;;;;;;5113330;28;20165;-58
2022/06/16 02:07:27;;;;;;;0.93;0.82;;;17.20;99.90;;;;;;5113308;28;20576;-58
2022/06/16 02:09:58;;;;;;;1.40;1.10;;;17.20;99.90;;;;;;5113174;28;20665;-58
2022/06/16 02:15:24;;;;;;;1.70;1.60;;;17.30;99.90;;;;;;5117139;28;20588;-58
2022/06/16 02:17:51;;;;;;;0.77;0.75;;;17.30;99.90;;;;;;5117047;28;20195;-58
2022/06/16 02:20:17;;;;;;;1.20;0.90;;;17.20;99.90;;;;;;5116953;28;20180;-58
2022/06/16 02:22:43;;;;;;;1.10;0.95;;;17.20;99.90;;;;;;5116881;28;20209;-58
2022/06/16 02:25:08;;;;;;;0.80;0.80;;;17.20;99.90;;;;;;5117035;28;20196;-59
2022/06/16 02:27:35;;;;;;;1.17;1.02;;;17.20;99.90;;;;;;5116754;28;20653;-58
2022/06/16 02:30:01;;;;;;;1.13;1.08;;;17.30;99.90;;;;;;5098659;28;20180;-58
2022/06/16 02:32:58;;;;;;;1.75;1.20;;;17.30;99.90;;;;;;5116698;28;20178;-58
2022/06/16 02:35:33;;;;;;;0.80;0.80;;;17.20;99.90;;;;;;5116976;28;20174;-58
2022/06/16 02:38:11;;;;;;;1.23;0.98;;;17.20;99.90;;;;;;5116704;28;20169;-59
2022/06/16 02:40:52;;;;;;;0.90;0.90;;;17.00;99.90;;;;;;5115394;28;20169;-58
2022/06/16 02:43:27;;;;;;;1.20;1.08;;;17.00;99.90;;;;;;5116746;28;20177;-58
2022/06/16 02:46:01;;;;;;;0.80;0.80;;;17.00;99.90;;;;;;5116594;28;20557;-58
2022/06/16 02:48:37;;;;;;;1.30;1.00;;;16.90;99.90;;;;;;5116353;28;20311;-58
2022/06/16 02:51:19;;;;;;;1.75;1.40;;;16.80;99.90;;;;;;5116376;28;20218;-58
2022/06/16 02:56:36;;;;;;;1.10;0.98;;;16.80;99.90;;;;;;5116369;28;20649;-58
2022/06/16 02:59:13;;;;;;;1.13;0.93;;;16.70;99.90;;;;;;5116201;28;20256;-58
2022/06/16 03:01:40;;;;;;;1.02;1.00;;;16.60;99.90;;;;;;5116206;28;20267;-58
2022/06/16 03:04:09;;;;;;;1.20;1.10;;;16.70;99.90;;;;;;5116320;28;20176;-58
2022/06/16 03:06:36;;;;;;;1.15;1.05;;;16.70;99.90;;;;;;5116228;28;20197;-58
2022/06/16 03:09:04;;;;;;;1.08;0.98;;;16.60;99.90;;;;;;5114740;28;20209;-58
2022/06/16 03:11:34;;;;;;;1.23;1.13;;;16.60;99.90;;;;;;5116137;28;20219;-58
2022/06/16 03:14:00;;;;;;;1.23;1.10;;;16.60;99.90;;;;;;5114980;28;20252;-58
2022/06/16 03:16:26;;;;;;;1.13;1.02;;;16.50;99.90;;;;;;5116069;28;20180;-58
2022/06/16 03:18:53;;;;;;;1.27;1.17;;;16.50;99.90;;;;;;5115995;28;20177;-58
2022/06/16 03:21:18;;;;;;;1.80;1.42;;;16.50;99.90;;;;;;5116152;28;20225;-58
2022/06/16 03:23:44;;;;;;;1.38;1.20;;;16.50;99.90;;;;;;5096983;28;20260;-59
2022/06/16 03:26:10;;;;;;;1.48;1.08;;;16.50;99.90;;;;;;5115705;28;20172;-59
2022/06/16 03:28:36;;;;;;;1.20;1.10;;;16.40;99.90;;;;;;5115504;28;20197;-58
2022/06/16 03:31:02;;;;;;;1.40;1.30;;;16.40;99.90;;;;;;5114367;28;20527;-58
2022/06/16 03:33:27;;;;;;;1.27;1.17;;;16.30;99.90;;;;;;5115779;28;20533;-58
2022/06/16 03:35:54;;;;;;;1.20;1.10;;;16.30;99.90;;;;;;5115639;28;20598;-58
2022/06/16 03:40:52;;;;;;;1.02;0.98;;;16.30;99.90;;;;;;5115382;28;20193;-58
2022/06/16 03:43:18;;;;;;;1.02;1.00;;;16.30;99.90;;;;;;5114432;28;20177;-58
2022/06/16 03:45:43;;;;;;;1.40;1.30;;;16.20;99.90;;;;;;5115500;28;20201;-58
2022/06/16 03:48:10;;;;;;;1.40;1.30;;;16.20;99.90;;;;;;5114118;28;20212;-59
2022/06/16 03:50:35;;;;;;;1.65;1.00;;;16.10;99.90;;;;;;5113977;28;20180;-58
2022/06/16 03:53:01;;;;;;;1.25;1.15;;;16.10;99.90;;;;;;5115129;28;20256;-58
2022/06/16 03:55:27;;;;;;;1.17;0.98;;;16.10;99.90;;;;;;5115075;28;20176;-58
2022/06/16 03:57:54;;;;;;;1.13;1.00;;;16.20;99.90;;;;;;5114922;28;20188;-58
2022/06/16 04:00:21;;;;;;;1.52;1.20;;;16.30;99.90;;;;;;5115228;28;20204;-58
2022/06/16 04:02:49;;;;;;;1.00;0.85;;;16.30;99.90;;;;;;5114940;28;20174;-58
2022/06/16 04:05:14;;;;;;;0.98;0.88;;;16.30;99.90;;;;;;5114914;28;20180;-58
2022/06/16 04:07:40;;;;;;;1.52;1.17;;;16.30;99.90;;;;;;5114606;28;20181;-58
2022/06/16 04:10:07;;;;;;;1.10;1.00;;;16.30;99.90;;;;;;5114694;28;20173;-58
2022/06/16 04:12:33;;;;;;;1.02;1.02;;;16.40;99.90;;;;;;5113730;28;20249;-58
2022/06/16 04:14:58;;;;;;;1.60;1.13;;;16.30;99.90;;;;;;5113500;28;20201;-58
2022/06/16 04:17:25;;;;;;;1.30;1.02;;;16.30;99.90;;;;;;5114755;28;20176;-58
2022/06/16 04:22:35;;;;;;;0.77;0.77;;;16.40;99.90;;;;;;5114555;28;20311;-58
2022/06/16 04:25:00;;;;;;;1.10;0.90;;;16.40;99.90;;;;;;5114815;28;20276;-58
2022/06/16 04:27:26;;;;;;;1.10;0.85;;;16.50;99.90;;;;;;5114689;28;20188;-58
2022/06/16 04:29:52;;;;;;;1.17;1.08;;;16.50;99.90;;;;;;5114383;28;20217;-58
2022/06/16 04:32:18;;;;;;;0.90;0.90;;;16.50;99.90;;;;;;5114516;28;20197;-58
2022/06/16 04:34:44;;;;;;;0.95;0.93;;;16.50;99.90;;;;;;5113580;28;20177;-59
2022/06/16 04:37:11;;;;;;;1.55;1.45;;;16.60;99.90;;;;;;5114180;28;20177;-58
2022/06/16 04:39:37;;;;;;;1.25;1.15;;;16.50;99.90;;;;;;5114500;28;20200;-58
2022/06/16 04:42:04;;;;;;;1.00;1.00;;;16.60;99.90;;;;;;5114432;28;20626;-58
2022/06/16 04:44:31;;;;;;;1.27;1.17;;;16.60;99.90;;;;;;5114390;28;20253;-58
2022/06/16 04:46:58;;;;;;;1.70;1.20;;;16.60;99.90;;;;;;5114184;28;20188;-58
2022/06/16 04:49:24;;;;;;;1.73;1.40;;;16.60;99.90;;;;;;5114022;28;20289;-58
2022/06/16 04:51:50;;;;;;;1.20;1.10;;;16.70;99.90;;;;;;5114011;28;20679;-58
2022/06/16 04:54:16;;;;;;;1.40;1.30;;;16.80;99.90;;;;;;5113771;28;20170;-58
2022/06/16 04:56:42;;;;;;;0.88;0.77;;;16.80;99.90;;;;;;5113278;28;20173;-58
2022/06/16 04:59:07;;;;;;;0.93;0.80;;;16.80;99.90;;;;;;5114093;28;20215;-62
2022/06/16 05:01:33;;;;;;;1.65;1.20;;;16.80;99.90;;;;;;5111630;28;20174;-59
2022/06/16 05:03:59;;;;;;;1.27;1.05;;;16.80;99.90;;;;;;5113081;28;20622;-59
2022/06/16 05:06:24;;;;;;;1.35;1.25;;;16.90;99.90;;;;;;5113678;28;20234;-58
2022/06/16 05:08:50;;;;;;;1.33;0.98;;;17.00;99.90;;;;;;5112836;28;20300;-58
2022/06/16 05:11:16;;;;;;;1.65;1.25;;;17.10;99.90;;;;;;5113993;28;20177;-58
2022/06/16 05:13:41;;;;;;;0.80;0.80;;;17.30;99.90;;;;;;5113897;28;20174;-58
2022/06/16 05:16:07;;;;;;;2.28;1.48;;;17.20;99.90;;;;;;5113949;28;20174;-58
2022/06/16 05:18:33;;;;;;;0.98;0.98;;;17.10;99.90;;;;;;5113735;28;20645;-59
2022/06/16 05:21:05;;;;;;;2.28;1.23;;;17.20;99.90;;;;;;5112384;28;20654;-58
2022/06/16 05:23:31;;;;;;;1.20;1.10;;;17.30;99.90;;;;;;5113557;28;20169;-58
2022/06/16 05:25:57;;;;;;;1.23;1.05;;;17.40;99.90;;;;;;5113577;28;20180;-58
2022/06/16 05:28:23;;;;;;;1.27;1.17;;;17.50;99.90;;;;;;5113834;28;20205;-59
2022/06/16 05:30:49;;;;;;;1.23;1.00;;;17.60;99.90;;;;;;5113581;28;20173;-58
2022/06/16 05:33:14;;;;;;;1.45;1.35;;;17.70;99.90;;;;;;5112464;28;20706;-59
2022/06/16 05:35:40;;;;;;;1.05;1.00;;;17.70;99.90;;;;;;5112256;28;20192;-58
2022/06/16 05:38:06;;;;;;;2.08;1.65;;;17.80;99.90;;;;;;5113467;28;20700;-58
2022/06/16 05:40:31;;;;;;;1.08;1.00;;;17.80;99.90;;;;;;5113676;28;20204;-58
2022/06/16 05:42:57;;;;;;;1.23;1.00;;;17.90;99.90;;;;;;5113668;28;20201;-59
2022/06/16 05:45:23;;;;;;;1.20;1.10;;;17.90;99.90;;;;;;5114127;28;20623;-59
2022/06/16 05:47:48;;;;;;;1.42;0.93;;;17.90;99.90;;;;;;5117557;28;20626;-58
2022/06/16 05:50:17;;;;;;;1.02;0.98;;;18.10;99.90;;;;;;5116300;28;20173;-58
2022/06/16 05:52:43;;;;;;;0.90;0.80;;;18.20;99.90;;;;;;5117565;28;20169;-59
2022/06/16 05:55:14;;;;;;;1.67;1.48;;;18.30;99.90;;;;;;5117658;28;20257;-59
2022/06/16 05:57:39;;;;;;;1.33;1.05;;;18.30;99.90;;;;;;5116274;28;20177;-58
2022/06/16 06:00:07;;;;;;;1.20;1.10;;;18.50;99.90;;;;;;5117391;28;20653;-59
2022/06/16 06:02:33;;;;;;;0.75;0.75;;;18.60;99.90;;;;;;5117226;28;20578;-59
2022/06/16 06:04:58;;;;;;;1.27;0.95;;;18.60;99.90;;;;;;5117197;28;20247;-58
2022/06/16 06:07:24;;;;;;;1.17;0.90;;;18.70;99.90;;;;;;5099022;28;20193;-59
2022/06/16 06:18:21;;;;;;;1.85;1.10;;;18.90;99.90;;;;;;5117105;28;20253;-58
2022/06/16 06:20:47;;;;;;;0.85;0.63;;;19.20;99.90;;;;;;5117138;28;20230;-59
2022/06/16 06:23:13;;;;;;;1.10;1.02;;;19.20;99.90;;;;;;5117019;28;20181;-59
2022/06/16 06:25:40;;;;;;;0.77;0.75;;;19.30;99.90;;;;;;5116927;28;20186;-59
2022/06/16 06:28:06;;;;;;;1.02;0.70;;;19.20;99.90;;;;;;5116947;28;20554;-58
2022/06/16 06:30:34;;;;;;;1.25;1.00;;;19.40;99.90;;;;;;5116871;28;20181;-59
2022/06/16 06:33:02;;;;;;;1.13;1.02;;;19.40;99.90;;;;;;5116877;28;20516;-59
2022/06/16 06:35:28;;;;;;;1.10;1.00;;;19.30;99.90;;;;;;5117026;28;20178;-59
2022/06/16 06:37:54;;;;;;;1.08;1.00;;;19.40;99.90;;;;;;5115429;28;20554;-58
2022/06/16 06:40:26;;;;;;;0.70;0.70;;;19.40;99.90;;;;;;5116857;28;20172;-59
2022/06/16 06:42:51;;;;;;;0.95;0.88;;;19.50;99.90;;;;;;5116957;28;20170;-59
2022/06/16 06:45:18;;;;;;;1.60;1.02;;;19.40;99.90;;;;;;5116646;28;20170;-59
2022/06/16 06:47:44;;;;;;;0.75;0.75;;;19.50;99.90;;;;;;5116486;28;20222;-59
2022/06/16 06:50:19;;;;;;;2.28;1.30;;;19.50;99.90;;;;;;5116408;28;20177;-58
2022/06/16 06:52:45;;;;;;;1.20;1.10;;;19.40;99.90;;;;;;5116349;28;20179;-59
2022/06/16 06:55:11;;;;;;;1.08;0.93;;;19.80;99.90;;;;;;5116554;28;20260;-59
2022/06/16 06:57:37;;;;;;;1.50;1.30;;;19.90;99.90;;;;;;5115510;28;20508;-59
2022/06/16 07:00:04;;;;;;;0.93;0.90;;;19.90;99.90;;;;;;5115391;28;20176;-58
2022/06/16 07:02:29;;;;;;;1.17;1.08;;;20.10;99.90;;;;;;5116179;28;20185;-58
2022/06/16 07:04:55;;;;;;;1.40;1.15;;;20.10;99.30;;;;;;5116118;28;20188;-58
2022/06/16 07:07:23;;;;;;;1.95;1.73;;;20.40;99.70;;;;;;5116036;28;20192;-60
2022/06/16 07:09:50;;;;;;;1.27;1.05;;;20.60;98.80;;;;;;5114904;28;20252;-59
2022/06/16 07:12:17;;;;;;;1.05;0.95;;;20.60;98.60;;;;;;5116187;28;20177;-58
2022/06/16 07:14:45;;;;;;;1.05;0.95;;;20.70;98.20;;;;;;5114830;28;20258;-59
2022/06/16 07:17:11;;;;;;;0.73;0.60;;;20.70;97.90;;;;;;5116365;28;20201;-59
2022/06/16 07:19:37;;;;;;;0.95;0.90;;;20.80;98.20;;;;;;5115774;28;20268;-59
2022/06/16 07:22:04;;;;;;;1.02;0.95;;;21.30;98.70;;;;;;5115717;28;20272;-58
2022/06/16 07:24:30;;;;;;;0.73;0.73;;;21.20;97.90;;;;;;5115898;28;20180;-59
2022/06/16 07:26:56;;;;;;;1.08;0.98;;;21.50;98.30;;;;;;5114711;28;20573;-59
2022/06/16 07:29:22;;;;;;;1.10;1.00;;;21.50;97.60;;;;;;5115699;28;20248;-59
2022/06/16 07:31:47;;;;;;;0.90;0.75;;;21.80;97.30;;;;;;5115657;28;20173;-59
2022/06/16 07:34:15;;;;;;;1.15;0.90;;;21.70;97.60;;;;;;5115633;28;20200;-59
2022/06/16 07:36:41;;;;;;;1.05;0.98;;;21.90;96.90;;;;;;5115814;28;20207;-58
2022/06/16 07:39:07;;;;;;;0.88;0.70;;;22.20;96.80;;;;;;5114397;28;20191;-58
2022/06/16 07:41:34;;;;;;;1.23;0.88;;;22.30;97.40;;;;;;5115673;28;20173;-59
2022/06/16 07:44:07;;;;;;;0.85;0.73;;;22.20;96.70;;;;;;5115312;28;20729;-58
2022/06/16 07:46:33;;;;;;;1.10;1.00;;;22.00;96.70;;;;;;5114404;28;20161;-57
2022/06/16 07:48:59;;;;;;;0.77;0.77;;;22.00;96.20;;;;;;5115201;28;20249;-56
2022/06/16 07:51:25;;;;;;;1.33;1.00;;;22.10;96.40;;;;;;5115426;28;20218;-57
2022/06/16 07:53:51;;;;;;;2.47;1.23;;;22.00;96.50;;;;;;5115355;28;20252;-57
2022/06/16 07:56:17;;;;;;;1.02;0.90;;;21.90;95.80;;;;;;5115231;28;20177;-57
2022/06/16 07:58:43;;;;;;;0.50;0.50;;;22.20;97.80;;;;;;5115184;28;20531;-57
2022/06/16 08:01:10;;;;;;;0.80;0.80;;;22.00;95.80;;;;;;5113734;28;20550;-58
2022/06/16 08:03:36;;;;;;;1.45;0.90;;;22.00;95.80;;;;;;5113682;28;20204;-58
2022/06/16 08:06:05;;;;;;;1.17;0.77;;;22.10;96.70;;;;;;5114919;28;20185;-58
2022/06/16 08:08:31;;;;;;;0.80;0.60;;;22.40;96.80;;;;;;5114941;28;20204;-57
2022/06/16 08:10:57;;;;;;;1.10;1.00;;;22.50;95.00;;;;;;5115216;28;20637;-58
2022/06/16 08:13:24;;;;;;;0.85;0.70;;;22.50;94.60;;;;;;5113721;28;20229;-57
2022/06/16 08:15:51;;;;;;;2.42;0.85;;;22.70;95.90;;;;;;5113515;28;20273;-58
2022/06/16 08:18:19;;;;;;;0.73;0.70;;;22.90;95.90;;;;;;5114635;28;20598;-58
2022/06/16 08:20:45;;;;;;;0.77;0.70;;;23.30;95.40;;;;;;5114521;28;20173;-58
2022/06/16 08:23:11;;;;;;;0.68;0.68;;;23.20;94.60;;;;;;5114902;28;20180;-58
2022/06/16 08:25:39;;;;;;;0.73;0.68;;;23.40;95.50;;;;;;5113565;28;20193;-57
2022/06/16 08:28:07;;;;;;;0.90;0.70;;;23.50;95.00;;;;;;5114382;28;20201;-58
2022/06/16 08:30:34;;;;;;;0.63;0.57;;;23.70;94.70;;;;;;5114580;28;20169;-58
2022/06/16 08:33:02;;;;;;;1.00;0.73;;;23.50;93.90;;;;;;5114421;28;20523;-58
2022/06/16 08:35:28;;;;;;;0.50;0.50;;;23.70;93.90;;;;;;5114835;28;20170;-58
2022/06/16 08:37:53;;;;;;;0.98;0.70;;;23.70;93.40;;;;;;5114378;28;20643;-58
2022/06/16 08:40:20;;;;;;;0.40;0.35;;;23.80;92.80;;;;;;5114438;28;20181;-57
2022/06/16 08:42:52;;;;;;;0.68;0.60;;;23.80;92.80;;;;;;5114370;28;20265;-58
2022/06/16 08:45:24;;;;;;;0.80;0.60;;;24.10;93.10;;;;;;5114285;28;20173;-58
2022/06/16 08:48:17;;;;;;;0.60;0.60;;;24.00;92.60;;;;;;5114324;28;20173;-57
2022/06/16 08:51:07;;;;;;;0.50;0.50;;;23.90;92.80;;;;;;5114404;28;20256;-58
2022/06/16 08:53:35;;;;;;;0.57;0.55;;;23.70;92.40;;;;;;5114153;27;20169;-59
2022/06/16 08:56:33;;;;;;;1.02;0.77;;;23.80;91.50;;;;;;5114281;28;20195;-58
2022/06/16 08:59:17;;;;;;;0.82;0.75;;;23.90;92.60;;;;;;5114204;28;20273;-57
2022/06/16 09:01:50;;;;;;;0.95;0.77;;;24.30;92.60;;;;;;5113989;28;20169;-58
2022/06/16 09:04:40;;;;;;;0.45;0.45;;;24.30;92.60;;;;;;5113947;28;20180;-57
2022/06/16 09:07:27;;;;;;;0.30;0.30;;;24.50;92.30;;;;;;5114205;28;20185;-58
2022/06/16 09:10:15;;;;;;;0.80;0.60;;;24.40;91.40;;;;;;5113820;28;20211;-58
2022/06/16 09:12:54;;;;;;;0.80;0.52;;;24.50;90.40;;;;;;5114019;28;20169;-57
2022/06/16 09:15:47;;;;;;;1.40;0.65;;;24.50;90.10;;;;;;5114014;28;20166;-58
2022/06/16 09:18:58;;;;;;;0.40;0.40;;;24.10;90.30;;;;;;5113770;28;20638;-58
2022/06/16 09:21:43;;;;;;;0.77;0.77;;;24.30;90.70;;;;;;5113462;28;20172;-58
2022/06/16 09:24:52;;;;;;;0.70;0.50;;;24.40;88.90;;;;;;5113698;28;20180;-58
2022/06/16 09:27:36;;;;;;;0.40;0.40;;;24.30;86.90;;;;;;5113884;28;20191;-58
2022/06/16 09:30:09;;;;;;;0.50;0.50;;;24.30;90.00;;;;;;5113794;28;20207;-58
2022/06/16 09:32:43;;;;;;;0.35;0.35;;;24.50;87.20;;;;;;5113694;28;20225;-58
2022/06/16 09:35:28;;;;;;;0.30;0.30;;;24.60;86.70;;;;;;5113377;28;20268;-58
2022/06/16 09:38:16;;;;;;;0.40;0.38;;;24.90;87.10;;;;;;5113844;28;20515;-58
2022/06/16 09:43:55;;;;;;;0.50;0.50;;;24.80;83.00;;;;;;5113619;28;20584;-58
2022/06/16 09:46:29;;;;;;;0.30;0.30;;;24.90;81.70;;;;;;5112703;28;20177;-58
2022/06/16 09:49:05;;;;;;;0.57;0.50;;;25.10;83.00;;;;;;5113437;28;20237;-58
2022/06/16 09:51:44;;;;;;;0.85;0.40;;;25.30;82.40;;;;;;5113549;28;20176;-57
2022/06/16 09:54:16;;;;;;;0.55;0.40;;;25.00;83.10;;;;;;5113569;28;20520;-58
2022/06/16 09:56:42;;;;;;;0.40;0.40;;;25.10;81.60;;;;;;5113340;28;20170;-58
2022/06/16 09:59:14;;;;;;;0.45;0.45;;;24.90;79.80;;;;;;5113464;28;20172;-57
2022/06/16 10:01:54;;;;;;;0.30;0.30;;;24.60;81.30;;;;;;5113419;28;20176;-57
2022/06/16 10:04:20;;;;;;;0.43;0.28;;;24.70;84.40;;;;;;5113366;28;20173;-58
2022/06/16 10:06:53;;;;;;;0.20;0.20;;;24.80;83.80;;;;;;5113318;28;20189;-57
2022/06/16 10:09:42;;;;;;;0.10;0.10;;;24.90;80.90;;;;;;5113192;28;20654;-57
2022/06/16 10:12:27;;;;;;;0.40;0.40;;;25.20;79.70;;;;;;5113216;28;20507;-58
2022/06/16 10:15:05;;;;;;;0.30;0.30;;;24.90;76.40;;;;;;5113204;28;20169;-57
2022/06/16 10:17:33;;;;;;;0.43;0.38;;;24.90;79.50;;;;;;5113276;28;20530;-57
2022/06/16 10:20:00;;;;;;;0.75;0.40;;;24.80;79.00;;;;;;5113272;28;20177;-58
2022/06/16 10:22:28;;;;;;;0.40;0.40;;;25.00;80.20;;;;;;5113091;28;20176;-58
2022/06/16 10:25:14;;;;;;;0.30;0.30;;;25.20;81.60;;;;;;5113034;28;20181;-58
2022/06/16 10:27:48;;;;;;;0.38;0.38;;;25.40;81.60;;;;;;5113334;28;20169;-57
2022/06/16 10:30:25;;;;;;;0.35;0.30;;;25.50;80.70;;;;;;5113114;28;20180;-57
2022/06/16 10:33:08;;;;;;;0.35;0.20;;;25.70;81.10;;;;;;5114368;28;20244;-57
2022/06/16 10:35:36;;;;;;;0.15;0.15;;;25.50;79.50;;;;;;5116705;28;20186;-58
2022/06/16 10:38:02;;;;;;;0.70;0.70;;;25.30;79.60;;;;;;5115976;28;20185;-58
2022/06/16 10:40:37;;;;;;;0.45;0.40;;;25.40;79.60;;;;;;5116770;28;20185;-58
2022/06/16 10:43:13;;;;;;;0.63;0.43;;;25.70;80.90;;;;;;5116728;28;20169;-58
2022/06/16 10:45:40;;;;;;;0.40;0.40;;;25.70;79.80;;;;;;5116603;28;20260;-58
2022/06/16 10:48:24;;;;;;;0.40;0.40;;;25.20;78.30;;;;;;5115046;28;20232;-58
2022/06/16 10:51:03;;;;;;;0.65;0.52;;;25.50;79.50;;;;;;5116691;27;20165;-58
2022/06/16 10:53:38;;;;;;;0.30;0.30;;;25.70;79.90;;;;;;5116858;28;20169;-58
2022/06/16 10:56:18;;;;;;;0.35;0.35;;;25.80;81.20;;;;;;5116384;28;20161;-57
2022/06/16 10:59:02;;;;;;;0.20;0.20;;;25.60;77.00;;;;;;5116729;28;20223;-58
2022/06/16 11:01:55;;;;;;;0.55;0.50;;;25.90;77.40;;;;;;5116262;28;20268;-58
2022/06/16 11:04:24;;;;;;;0.40;0.40;;;25.80;77.50;;;;;;5116232;28;20168;-59
2022/06/16 11:06:55;;;;;;;0.40;0.40;;;25.80;79.40;;;;;;5115996;28;20185;-58
2022/06/16 11:09:27;;;;;;;0.60;0.30;;;26.00;77.00;;;;;;5116302;28;20201;-58
2022/06/16 11:12:00;;;;;;;0.20;0.20;;;26.10;78.50;;;;;;5116242;28;20170;-58
2022/06/16 11:14:53;;;;;;;0.40;0.40;;;26.00;77.60;;;;;;5116032;28;20248;-58
2022/06/16 11:17:40;;;;;;;1.02;0.50;;;26.20;76.50;;;;;;5115830;28;20176;-57
2022/06/16 11:20:09;;;;;;;0.40;0.40;;;25.80;77.30;;;;;;5114537;28;20181;-58
2022/06/16 11:22:40;;;;;;;0.47;0.30;;;25.90;76.90;;;;;;5115875;28;20173;-58
2022/06/16 11:25:17;;;;;;;0.50;0.50;;;25.80;76.00;;;;;;5115855;28;20197;-57
2022/06/16 11:27:49;;;;;;;0.40;0.40;;;25.80;77.80;;;;;;5115713;28;20169;-58
2022/06/16 11:30:28;;;;;;;0.40;0.38;;;26.00;77.10;;;;;;5114626;28;20185;-57
2022/06/16 11:32:54;;;;;;;1.35;0.60;;;26.10;75.80;;;;;;5114352;28;20181;-58
2022/06/16 11:35:36;;;;;;;0.50;0.50;;;26.40;77.00;;;;;;5115627;28;20225;-57
2022/06/16 11:38:40;;;;;;;0.43;0.43;;;26.50;77.20;;;;;;5114304;28;20512;-59
2022/06/16 11:41:09;;;;;;;0.75;0.60;;;26.50;77.60;;;;;;5101596;28;20515;-59
2022/06/16 11:43:53;;;;;;;0.50;0.50;;;26.50;75.40;;;;;;5114995;28;20280;-59
2022/06/16 11:46:39;;;;;;;0.40;0.40;;;26.50;77.50;;;;;;5115240;28;20248;-59
2022/06/16 11:49:19;;;;;;;0.40;0.40;;;26.40;75.90;;;;;;5115431;28;20200;-59
2022/06/16 11:52:04;;;;;;;0.40;0.40;;;26.10;75.90;;;;;;5115559;28;20161;-59
2022/06/16 11:54:37;;;;;;;0.60;0.57;;;26.30;77.40;;;;;;5115355;28;20261;-59
2022/06/16 11:57:08;;;;;;;0.40;0.30;;;26.50;75.90;;;;;;5115690;28;20245;-59
2022/06/16 11:59:49;;;;;;;0.40;0.40;;;26.80;77.80;;;;;;5113940;28;20199;-59
2022/06/16 12:02:20;;;;;;;0.35;0.35;;;26.90;76.00;;;;;;5115393;28;20172;-59
2022/06/16 12:05:27;;;;;;;0.98;0.68;;;27.00;77.00;;;;;;5115105;28;20563;-59
2022/06/16 12:08:14;;;;;;;0.68;0.52;;;26.70;74.30;;;;;;5115025;28;20542;-59
2022/06/16 12:10:49;;;;;;;0.50;0.50;;;26.70;75.50;;;;;;5113749;28;20530;-59
2022/06/16 12:13:18;;;;;;;0.32;0.32;;;26.70;74.60;;;;;;5114837;28;20226;-59
2022/06/16 12:16:25;;;;;;;1.02;0.50;;;26.50;74.30;;;;;;5115007;28;20250;-59
2022/06/16 12:18:57;;;;;;;0.40;0.40;;;26.20;74.30;;;;;;5114918;28;20169;-59
2022/06/16 12:21:33;;;;;;;0.40;0.40;;;26.60;76.00;;;;;;5113542;28;20176;-59
2022/06/16 12:24:21;;;;;;;0.60;0.50;;;26.30;73.30;;;;;;5114593;28;20165;-59
2022/06/16 12:27:10;;;;;;;0.30;0.30;;;26.60;76.40;;;;;;5114778;28;20185;-59
2022/06/16 12:29:42;;;;;;;0.52;0.50;;;26.70;74.30;;;;;;5114564;28;20208;-56
2022/06/16 12:32:29;;;;;;;1.65;0.47;;;26.70;76.00;;;;;;5114471;28;20219;-58
2022/06/16 12:35:26;;;;;;;0.50;0.50;;;26.60;76.00;;;;;;5114554;28;20200;-58
2022/06/16 12:37:58;;;;;;;0.50;0.50;;;26.50;75.10;;;;;;5114548;28;20185;-58
2022/06/16 12:40:24;;;;;;;0.50;0.47;;;26.50;75.60;;;;;;5114339;28;20166;-58
2022/06/16 12:42:57;;;;;;;0.40;0.40;;;26.80;74.90;;;;;;5114248;27;20192;-58
2022/06/16 12:45:35;;;;;;;0.40;0.40;;;26.60;75.60;;;;;;5114791;28;20169;-58
2022/06/16 12:48:14;;;;;;;0.32;0.32;;;26.80;77.00;;;;;;5112898;28;20177;-58
2022/06/16 12:50:50;;;;;;;0.95;0.50;;;27.10;77.70;;;;;;5114264;28;20199;-58
2022/06/16 12:53:31;;;;;;;0.47;0.47;;;26.90;76.70;;;;;;5112800;28;20649;-58
2022/06/16 12:56:17;;;;;;;0.73;0.40;;;26.70;75.30;;;;;;5113742;28;20165;-58
2022/06/16 12:59:01;;;;;;;0.50;0.50;;;26.70;76.40;;;;;;5114057;28;20176;-58
2022/06/16 13:01:27;;;;;;;0.40;0.40;;;26.50;76.60;;;;;;5114029;28;20165;-58
2022/06/16 13:04:00;;;;;;;0.40;0.40;;;26.30;75.70;;;;;;5114274;28;20180;-58
2022/06/16 13:06:27;;;;;;;0.52;0.52;;;26.20;74.80;;;;;;5114098;28;20181;-58
2022/06/16 13:08:57;;;;;;;0.60;0.60;;;26.30;75.40;;;;;;5112775;28;20614;-57
2022/06/16 13:11:36;;;;;;;0.30;0.30;;;26.20;74.60;;;;;;5112539;28;20176;-58
2022/06/16 13:14:07;;;;;;;0.40;0.40;;;26.30;76.10;;;;;;5113739;28;20180;-58
2022/06/16 13:16:38;;;;;;;0.55;0.40;;;26.70;76.20;;;;;;5114137;28;20215;-58
2022/06/16 13:19:19;;;;;;;0.50;0.50;;;26.70;76.40;;;;;;5113919;28;20177;-58
2022/06/16 13:22:05;;;;;;;0.28;0.28;;;26.90;75.80;;;;;;5113752;28;20169;-59
2022/06/16 13:24:51;;;;;;;0.43;0.43;;;26.80;76.30;;;;;;5112483;28;20664;-58
2022/06/16 13:27:32;;;;;;;1.48;0.50;;;26.50;73.40;;;;;;5113851;28;20157;-58
2022/06/16 13:29:59;;;;;;;2.30;0.50;;;26.50;74.80;;;;;;5113668;28;20292;-58
2022/06/16 13:32:43;;;;;;;0.43;0.43;;;26.70;75.40;;;;;;5113628;28;20526;-58
2022/06/16 13:35:12;;;;;;;0.30;0.30;;;26.50;73.60;;;;;;5112494;28;20687;-58
2022/06/16 13:38:09;;;;;;;0.50;0.32;;;26.40;76.30;;;;;;5112673;28;20173;-58
2022/06/16 13:40:43;;;;;;;0.40;0.40;;;26.30;74.10;;;;;;5089569;28;20204;-58